Columbia, Iowa
Current Conditions -  °F | °C
As of 9:15 AM on Thursday 18 Dec 2014 (Local Time) from KOXV Reporting Station
Light Snow Light Snow  
Wind Chill: -8°   Ceiling: Unl
Heat Index: -5°   Visibility: 1.5mi
Dew Point: -8°   Wind: 5mph
Humidity: 80%   Direction: 60°ENE
Pressure: 30.27"   Gusts: NA
Location:  41.18°N, 93.15°W
Report Text: KOXV 181515Z AUTO 06004KT 1 1/2SM -SN CLR M05/M08 A3027 RMK AO2
Loading
Personal Weather Stations






























Interactive Weather Map New forecast layout! Learn more

10-Day Weather Forecast

Advertisements
Track Severe Weather on mobile